Terminal Aerodrome Forecast
Issued by NWS Pueblo, CO

Home | Current Version | Previous Version | Text Only | Print | Product List | Glossary On
Versions: 1 2 3 4 5 6 7 8 9 10 11 12 13 14 15 16 17 18 19 20
000
FTUS45 KPUB 261147
TAFCOS
TAF
KCOS 261147Z 2612/2712 32010KT P6SM BKN130
     FM261600 06010KT P6SM SCT030 BKN130
     FM261800 09012KT P6SM BKN040 OVC100
     FM262100 VRB20G35KT 3SM TSRA BKN030CB
     FM270000 01015G25KT P6SM VCSH BKN030
     FM270300 34012KT 5SM -RA BR BKN030
     FM270500 34015G27KT 2SM -RA BR OVC015=

USA.gov is the U.S. government's official web portal to all federal, state and local government web resources and services.